sensor_id;sensor_type;location;lat;lon;timestamp;pressure;altitude;pressure_sealevel;temperature;humidity
10700;BME280;5401;41.986;21.452;2023-05-22T00:00:10;97985.41;;;18.07;77.76
10700;BME280;5401;41.986;21.452;2023-05-22T00:02:38;97981.34;;;18.10;77.96
10700;BME280;5401;41.986;21.452;2023-05-22T00:05:10;97992.19;;;18.10;77.54
10700;BME280;5401;41.986;21.452;2023-05-22T00:07:38;97988.91;;;18.03;78.00
10700;BME280;5401;41.986;21.452;2023-05-22T00:10:07;97988.63;;;17.94;78.45
10700;BME280;5401;41.986;21.452;2023-05-22T00:12:35;97978.84;;;17.88;78.54
10700;BME280;5401;41.986;21.452;2023-05-22T00:15:03;97982.41;;;17.94;78.23
10700;BME280;5401;41.986;21.452;2023-05-22T00:17:31;97980.75;;;17.93;78.41
10700;BME280;5401;41.986;21.452;2023-05-22T00:19:59;97977.78;;;17.94;78.86
10700;BME280;5401;41.986;21.452;2023-05-22T00:22:33;97970.22;;;17.96;79.11
10700;BME280;5401;41.986;21.452;2023-05-22T00:25:02;97965.84;;;17.95;78.79
10700;BME280;5401;41.986;21.452;2023-05-22T00:27:29;97967.78;;;18.00;78.55
10700;BME280;5401;41.986;21.452;2023-05-22T00:29:58;97961.00;;;17.97;79.00
10700;BME280;5401;41.986;21.452;2023-05-22T00:32:26;97973.47;;;17.98;78.91
10700;BME280;5401;41.986;21.452;2023-05-22T00:34:53;97968.03;;;17.93;78.49
10700;BME280;5401;41.986;21.452;2023-05-22T00:37:21;97965.84;;;17.90;79.20
10700;BME280;5401;41.986;21.452;2023-05-22T00:39:50;97970.22;;;17.96;79.60
10700;BME280;5401;41.986;21.452;2023-05-22T00:42:17;97970.47;;;17.95;78.91
10700;BME280;5401;41.986;21.452;2023-05-22T00:44:45;97967.22;;;17.93;79.40
10700;BME280;5401;41.986;21.452;2023-05-22T00:47:14;97963.97;;;17.86;79.62
10700;BME280;5401;41.986;21.452;2023-05-22T00:49:42;97971.28;;;17.90;78.85
10700;BME280;5401;41.986;21.452;2023-05-22T00:52:10;97967.47;;;17.86;78.83
10700;BME280;5401;41.986;21.452;2023-05-22T00:54:39;97969.34;;;17.81;79.64
10700;BME280;5401;41.986;21.452;2023-05-22T00:57:08;97973.97;;;17.76;79.67
10700;BME280;5401;41.986;21.452;2023-05-22T00:59:36;97965.53;;;17.72;79.95
10700;BME280;5401;41.986;21.452;2023-05-22T01:02:04;97971.50;;;17.74;80.24
10700;BME280;5401;41.986;21.452;2023-05-22T01:04:31;97972.31;;;17.70;79.59
10700;BME280;5401;41.986;21.452;2023-05-22T01:07:00;97972.56;;;17.68;79.72
10700;BME280;5401;41.986;21.452;2023-05-22T01:09:28;97965.81;;;17.66;80.57
10700;BME280;5401;41.986;21.452;2023-05-22T01:12:00;97972.56;;;17.63;80.76
10700;BME280;5401;41.986;21.452;2023-05-22T01:14:40;97951.94;;;17.52;80.53
10700;BME280;5401;41.986;21.452;2023-05-22T01:17:27;97973.63;;;17.62;80.63
10700;BME280;5401;41.986;21.452;2023-05-22T01:20:07;97970.63;;;17.59;80.71
10700;BME280;5401;41.986;21.452;2023-05-22T01:22:55;97967.38;;;17.57;80.43
10700;BME280;5401;41.986;21.452;2023-05-22T01:25:44;97971.13;;;17.51;80.48
10700;BME280;5401;41.986;21.452;2023-05-22T01:28:32;97957.31;;;17.43;79.60
10700;BME280;5401;41.986;21.452;2023-05-22T01:31:05;97962.16;;;17.41;80.73
10700;BME280;5401;41.986;21.452;2023-05-22T01:33:39;97954.56;;;17.33;80.53
10700;BME280;5401;41.986;21.452;2023-05-22T01:36:08;97956.75;;;17.36;80.58
10700;BME280;5401;41.986;21.452;2023-05-22T01:38:38;97959.41;;;17.31;80.25
10700;BME280;5401;41.986;21.452;2023-05-22T01:41:07;97954.28;;;17.29;80.43
10700;BME280;5401;41.986;21.452;2023-05-22T01:43:35;97946.69;;;17.21;81.15
10700;BME280;5401;41.986;21.452;2023-05-22T01:46:05;97957.97;;;17.13;81.08
10700;BME280;5401;41.986;21.452;2023-05-22T01:48:33;97948.50;;;17.11;81.61
10700;BME280;5401;41.986;21.452;2023-05-22T01:51:04;97950.59;;;16.99;81.02
10700;BME280;5401;41.986;21.452;2023-05-22T01:53:37;97941.84;;;16.87;81.41
10700;BME280;5401;41.986;21.452;2023-05-22T01:56:11;97955.31;;;16.77;82.46
10700;BME280;5401;41.986;21.452;2023-05-22T01:58:45;97954.13;;;16.64;82.77
10700;BME280;5401;41.986;21.452;2023-05-22T02:01:18;97958.97;;;16.57;82.27
10700;BME280;5401;41.986;21.452;2023-05-22T02:03:48;97946.00;;;16.59;82.79
10700;BME280;5401;41.986;21.452;2023-05-22T02:06:22;97968.47;;;16.64;82.89
10700;BME280;5401;41.986;21.452;2023-05-22T02:08:52;97960.16;;;16.71;83.34
10700;BME280;5401;41.986;21.452;2023-05-22T02:11:22;97943.88;;;16.66;83.69
10700;BME280;5401;41.986;21.452;2023-05-22T02:13:51;97961.53;;;16.78;83.44
10700;BME280;5401;41.986;21.452;2023-05-22T02:16:21;97958.31;;;16.81;83.31
10700;BME280;5401;41.986;21.452;2023-05-22T02:18:49;97956.16;;;16.83;83.29
10700;BME280;5401;41.986;21.452;2023-05-22T02:21:20;97960.78;;;16.82;82.90
10700;BME280;5401;41.986;21.452;2023-05-22T02:23:48;97959.13;;;16.81;82.72
10700;BME280;5401;41.986;21.452;2023-05-22T02:26:16;97970.50;;;16.83;83.48
10700;BME280;5401;41.986;21.452;2023-05-22T02:28:43;97959.44;;;16.85;83.43
10700;BME280;5401;41.986;21.452;2023-05-22T02:31:11;97955.63;;;16.86;83.62
10700;BME280;5401;41.986;21.452;2023-05-22T02:33:39;97960.78;;;16.87;83.44
10700;BME280;5401;41.986;21.452;2023-05-22T02:36:07;97956.19;;;16.88;82.95
10700;BME280;5401;41.986;21.452;2023-05-22T02:38:37;97957.00;;;16.88;82.76
10700;BME280;5401;41.986;21.452;2023-05-22T02:41:06;97957.78;;;16.84;82.68
10700;BME280;5401;41.986;21.452;2023-05-22T02:43:34;97958.06;;;16.82;83.49
10700;BME280;5401;41.986;21.452;2023-05-22T02:46:01;97966.69;;;16.84;83.58
10700;BME280;5401;41.986;21.452;2023-05-22T02:48:29;97967.00;;;16.83;83.02
10700;BME280;5401;41.986;21.452;2023-05-22T02:50:58;97963.97;;;16.79;82.79
10700;BME280;5401;41.986;21.452;2023-05-22T02:53:25;97970.47;;;16.78;83.31
10700;BME280;5401;41.986;21.452;2023-05-22T02:55:53;97963.19;;;16.79;83.45
10700;BME280;5401;41.986;21.452;2023-05-22T02:58:23;97964.78;;;16.75;83.38
10700;BME280;5401;41.986;21.452;2023-05-22T03:00:51;97975.03;;;16.78;83.19
10700;BME280;5401;41.986;21.452;2023-05-22T03:03:19;97969.63;;;16.78;83.00
10700;BME280;5401;41.986;21.452;2023-05-22T03:05:46;97968.59;;;16.79;83.29
10700;BME280;5401;41.986;21.452;2023-05-22T03:08:16;97975.34;;;16.81;83.08
10700;BME280;5401;41.986;21.452;2023-05-22T03:10:43;97970.75;;;16.82;83.17
10700;BME280;5401;41.986;21.452;2023-05-22T03:13:11;97967.78;;;16.83;82.35
10700;BME280;5401;41.986;21.452;2023-05-22T03:15:38;97967.53;;;16.85;82.86
10700;BME280;5401;41.986;21.452;2023-05-22T03:18:07;97978.06;;;16.86;82.91
10700;BME280;5401;41.986;21.452;2023-05-22T03:20:34;97972.66;;;16.86;82.71
10700;BME280;5401;41.986;21.452;2023-05-22T03:23:03;97967.53;;;16.85;82.74
10700;BME280;5401;41.986;21.452;2023-05-22T03:25:33;97975.66;;;16.85;82.48
10700;BME280;5401;41.986;21.452;2023-05-22T03:28:00;97975.91;;;16.83;82.42
10700;BME280;5401;41.986;21.452;2023-05-22T03:30:33;97984.81;;;16.84;81.75
10700;BME280;5401;41.986;21.452;2023-05-22T03:33:00;97982.34;;;16.77;82.38
10700;BME280;5401;41.986;21.452;2023-05-22T03:35:27;97970.69;;;16.72;81.92
10700;BME280;5401;41.986;21.452;2023-05-22T03:37:55;97978.59;;;16.83;82.95
10700;BME280;5401;41.986;21.452;2023-05-22T03:40:22;97978.69;;;16.93;82.88
10700;BME280;5401;41.986;21.452;2023-05-22T03:42:51;97974.69;;;17.01;82.55
10700;BME280;5401;41.986;21.452;2023-05-22T03:45:19;97979.00;;;17.07;81.67
10700;BME280;5401;41.986;21.452;2023-05-22T03:47:46;97991.88;;;17.21;81.17
10700;BME280;5401;41.986;21.452;2023-05-22T03:50:14;97989.47;;;17.29;81.48
10700;BME280;5401;41.986;21.452;2023-05-22T03:52:41;97991.63;;;17.32;81.06
10700;BME280;5401;41.986;21.452;2023-05-22T03:55:09;97994.03;;;17.29;81.74
10700;BME280;5401;41.986;21.452;2023-05-22T03:57:36;97995.94;;;17.23;81.34
10700;BME280;5401;41.986;21.452;2023-05-22T04:00:06;97987.50;;;17.15;80.63
10700;BME280;5401;41.986;21.452;2023-05-22T04:02:36;97992.03;;;17.10;81.41
10700;BME280;5401;41.986;21.452;2023-05-22T04:05:06;97998.00;;;17.12;81.90
10700;BME280;5401;41.986;21.452;2023-05-22T04:07:34;97990.69;;;17.12;82.12
10700;BME280;5401;41.986;21.452;2023-05-22T04:10:02;97993.47;;;17.17;81.37
10700;BME280;5401;41.986;21.452;2023-05-22T04:12:30;97995.13;;;17.23;80.97
10700;BME280;5401;41.986;21.452;2023-05-22T04:14:57;97991.34;;;17.29;81.36
10700;BME280;5401;41.986;21.452;2023-05-22T04:17:30;98003.00;;;17.29;81.67
10700;BME280;5401;41.986;21.452;2023-05-22T04:19:58;97999.75;;;17.32;81.89
10700;BME280;5401;41.986;21.452;2023-05-22T04:22:26;97997.59;;;17.34;80.69
10700;BME280;5401;41.986;21.452;2023-05-22T04:24:55;98000.06;;;17.41;80.42
10700;BME280;5401;41.986;21.452;2023-05-22T04:27:23;98002.81;;;17.46;80.00
10700;BME280;5401;41.986;21.452;2023-05-22T04:29:51;98005.00;;;17.53;80.45
10700;BME280;5401;41.986;21.452;2023-05-22T04:32:19;98006.91;;;17.58;80.22
10700;BME280;5401;41.986;21.452;2023-05-22T04:34:49;98007.47;;;17.65;79.77
10700;BME280;5401;41.986;21.452;2023-05-22T04:37:17;97999.94;;;17.72;79.70
10700;BME280;5401;41.986;21.452;2023-05-22T04:39:45;97990.44;;;17.69;78.79
10700;BME280;5401;41.986;21.452;2023-05-22T04:42:12;98013.22;;;17.83;78.13
10700;BME280;5401;41.986;21.452;2023-05-22T04:44:41;98014.31;;;17.87;77.81
10700;BME280;5401;41.986;21.452;2023-05-22T04:47:08;98014.06;;;17.88;77.86
10700;BME280;5401;41.986;21.452;2023-05-22T04:49:39;98019.78;;;17.92;78.21
10700;BME280;5401;41.986;21.452;2023-05-22T04:52:08;98010.28;;;17.94;77.07
10700;BME280;5401;41.986;21.452;2023-05-22T04:54:36;98018.72;;;17.98;76.72
10700;BME280;5401;41.986;21.452;2023-05-22T04:57:04;98014.38;;;18.02;76.92
10700;BME280;5401;41.986;21.452;2023-05-22T04:59:35;98014.41;;;18.12;76.70
10700;BME280;5401;41.986;21.452;2023-05-22T05:02:04;98019.88;;;18.17;76.34
10700;BME280;5401;41.986;21.452;2023-05-22T05:04:32;98016.09;;;18.23;75.85
10700;BME280;5401;41.986;21.452;2023-05-22T05:06:59;98013.09;;;18.29;76.06
10700;BME280;5401;41.986;21.452;2023-05-22T05:09:28;98012.03;;;18.35;75.67
10700;BME280;5401;41.986;21.452;2023-05-22T05:11:56;98022.31;;;18.38;75.54
10700;BME280;5401;41.986;21.452;2023-05-22T05:14:24;98021.00;;;18.50;74.83
10700;BME280;5401;41.986;21.452;2023-05-22T05:16:51;98019.38;;;18.59;74.57
10700;BME280;5401;41.986;21.452;2023-05-22T05:19:19;98022.91;;;18.64;75.15
10700;BME280;5401;41.986;21.452;2023-05-22T05:21:47;98026.69;;;18.78;74.80
10700;BME280;5401;41.986;21.452;2023-05-22T05:24:15;98031.31;;;18.93;74.80
10700;BME280;5401;41.986;21.452;2023-05-22T05:26:44;98031.31;;;19.07;73.89
10700;BME280;5401;41.986;21.452;2023-05-22T05:29:12;98030.22;;;19.23;73.22
10700;BME280;5401;41.986;21.452;2023-05-22T05:31:40;98035.06;;;19.36;73.05
10700;BME280;5401;41.986;21.452;2023-05-22T05:34:07;98035.56;;;19.48;73.14
10700;BME280;5401;41.986;21.452;2023-05-22T05:36:35;98028.47;;;19.57;72.53
10700;BME280;5401;41.986;21.452;2023-05-22T05:39:03;98031.97;;;19.67;71.73
10700;BME280;5401;41.986;21.452;2023-05-22T05:41:31;98037.94;;;19.74;71.72
10700;BME280;5401;41.986;21.452;2023-05-22T05:44:00;98036.84;;;19.80;71.56
10700;BME280;5401;41.986;21.452;2023-05-22T05:46:27;98037.91;;;19.84;71.01
10700;BME280;5401;41.986;21.452;2023-05-22T05:48:56;98035.44;;;19.87;70.82
10700;BME280;5401;41.986;21.452;2023-05-22T05:51:23;98033.03;;;19.86;70.81
10700;BME280;5401;41.986;21.452;2023-05-22T05:53:51;98040.09;;;19.82;70.62
10700;BME280;5401;41.986;21.452;2023-05-22T05:56:19;98020.25;;;19.76;70.49
10700;BME280;5401;41.986;21.452;2023-05-22T05:58:46;98033.78;;;19.96;70.49
10700;BME280;5401;41.986;21.452;2023-05-22T06:01:15;98041.06;;;20.05;70.36
10700;BME280;5401;41.986;21.452;2023-05-22T06:03:43;98030.97;;;20.16;70.43
10700;BME280;5401;41.986;21.452;2023-05-22T06:06:11;98030.66;;;20.17;70.25
10700;BME280;5401;41.986;21.452;2023-05-22T06:08:39;98043.63;;;20.35;69.84
10700;BME280;5401;41.986;21.452;2023-05-22T06:11:07;98051.66;;;20.50;69.96
10700;BME280;5401;41.986;21.452;2023-05-22T06:13:34;98037.25;;;20.49;68.78
10700;BME280;5401;41.986;21.452;2023-05-22T06:16:02;98057.00;;;20.70;68.65
10700;BME280;5401;41.986;21.452;2023-05-22T06:18:32;98051.75;;;20.78;68.46
10700;BME280;5401;41.986;21.452;2023-05-22T06:20:59;98054.69;;;20.86;67.91
10700;BME280;5401;41.986;21.452;2023-05-22T06:23:27;98053.78;;;21.01;67.35
10700;BME280;5401;41.986;21.452;2023-05-22T06:25:54;98051.53;;;21.08;66.98
10700;BME280;5401;41.986;21.452;2023-05-22T06:28:22;98045.47;;;21.15;66.78
10700;BME280;5401;41.986;21.452;2023-05-22T06:30:49;98045.38;;;21.25;66.36
10700;BME280;5401;41.986;21.452;2023-05-22T06:33:17;98045.81;;;21.37;65.78
10700;BME280;5401;41.986;21.452;2023-05-22T06:35:46;98051.63;;;21.54;64.51
10700;BME280;5401;41.986;21.452;2023-05-22T06:38:13;98047.41;;;21.66;64.66
10700;BME280;5401;41.986;21.452;2023-05-22T06:40:41;98037.47;;;21.75;63.73
10700;BME280;5401;41.986;21.452;2023-05-22T06:43:09;98046.69;;;22.02;63.12
10700;BME280;5401;41.986;21.452;2023-05-22T06:45:36;98040.94;;;22.27;62.99
10700;BME280;5401;41.986;21.452;2023-05-22T06:48:04;98050.06;;;22.54;62.77
10700;BME280;5401;41.986;21.452;2023-05-22T06:50:32;98045.63;;;22.94;61.96
10700;BME280;5401;41.986;21.452;2023-05-22T06:53:01;98052.22;;;23.57;60.94
10700;BME280;5401;41.986;21.452;2023-05-22T06:55:28;98057.19;;;24.21;59.68
10700;BME280;5401;41.986;21.452;2023-05-22T06:57:56;98050.78;;;24.74;58.82
10700;BME280;5401;41.986;21.452;2023-05-22T07:00:23;98050.22;;;25.20;57.44
10700;BME280;5401;41.986;21.452;2023-05-22T07:02:51;98055.06;;;25.45;56.98
10700;BME280;5401;41.986;21.452;2023-05-22T07:05:18;98050.34;;;25.67;55.95
10700;BME280;5401;41.986;21.452;2023-05-22T07:07:46;98048.03;;;25.91;55.41
10700;BME280;5401;41.986;21.452;2023-05-22T07:10:15;98048.59;;;26.10;54.96
10700;BME280;5401;41.986;21.452;2023-05-22T07:12:42;98051.44;;;26.35;54.16
10700;BME280;5401;41.986;21.452;2023-05-22T07:15:10;98051.00;;;26.58;53.61
10700;BME280;5401;41.986;21.452;2023-05-22T07:17:39;98045.72;;;26.95;53.11
10700;BME280;5401;41.986;21.452;2023-05-22T07:20:08;98049.72;;;27.14;52.81
10700;BME280;5401;41.986;21.452;2023-05-22T07:22:36;98050.06;;;27.21;52.49
10700;BME280;5401;41.986;21.452;2023-05-22T07:25:05;98059.75;;;27.19;51.84
10700;BME280;5401;41.986;21.452;2023-05-22T07:27:34;98050.03;;;27.29;51.83
10700;BME280;5401;41.986;21.452;2023-05-22T07:30:01;98049.38;;;27.41;51.58
10700;BME280;5401;41.986;21.452;2023-05-22T07:32:29;98057.59;;;27.66;51.43
10700;BME280;5401;41.986;21.452;2023-05-22T07:34:57;98052.84;;;27.75;50.50
10700;BME280;5401;41.986;21.452;2023-05-22T07:37:24;98045.63;;;27.62;50.66
10700;BME280;5401;41.986;21.452;2023-05-22T07:39:51;98042.09;;;27.36;50.66
10700;BME280;5401;41.986;21.452;2023-05-22T07:42:19;98053.94;;;27.12;50.88
10700;BME280;5401;41.986;21.452;2023-05-22T07:44:48;98049.88;;;27.26;50.39
10700;BME280;5401;41.986;21.452;2023-05-22T07:47:16;98048.56;;;27.49;49.84
10700;BME280;5401;41.986;21.452;2023-05-22T07:49:43;98054.03;;;27.57;49.38
10700;BME280;5401;41.986;21.452;2023-05-22T07:52:11;98053.59;;;27.47;49.43
10700;BME280;5401;41.986;21.452;2023-05-22T07:54:39;98051.03;;;27.42;49.19
10700;BME280;5401;41.986;21.452;2023-05-22T07:57:07;98058.94;;;27.52;49.41
10700;BME280;5401;41.986;21.452;2023-05-22T07:59:37;98056.09;;;27.77;48.76
10700;BME280;5401;41.986;21.452;2023-05-22T08:02:06;98054.34;;;28.09;48.38
10700;BME280;5401;41.986;21.452;2023-05-22T08:04:34;98059.50;;;28.48;47.78
10700;BME280;5401;41.986;21.452;2023-05-22T08:07:02;98050.81;;;28.86;47.11
10700;BME280;5401;41.986;21.452;2023-05-22T08:09:30;98046.38;;;28.94;46.79
10700;BME280;5401;41.986;21.452;2023-05-22T08:11:57;98042.81;;;29.34;46.72
10700;BME280;5401;41.986;21.452;2023-05-22T08:14:24;98045.69;;;29.69;45.96
10700;BME280;5401;41.986;21.452;2023-05-22T08:16:52;98046.16;;;29.83;45.19
10700;BME280;5401;41.986;21.452;2023-05-22T08:19:21;98044.03;;;30.00;45.32
10700;BME280;5401;41.986;21.452;2023-05-22T08:21:48;98048.72;;;30.12;44.77
10700;BME280;5401;41.986;21.452;2023-05-22T08:24:17;98043.84;;;29.73;44.92
10700;BME280;5401;41.986;21.452;2023-05-22T08:26:45;98039.53;;;29.52;44.94
10700;BME280;5401;41.986;21.452;2023-05-22T08:29:12;98038.84;;;29.55;45.09
10700;BME280;5401;41.986;21.452;2023-05-22T08:31:40;98050.59;;;29.64;45.25
10700;BME280;5401;41.986;21.452;2023-05-22T08:34:08;98044.38;;;29.67;44.75
10700;BME280;5401;41.986;21.452;2023-05-22T08:36:37;98051.25;;;29.61;44.44
10700;BME280;5401;41.986;21.452;2023-05-22T08:39:05;98045.97;;;29.56;44.57
10700;BME280;5401;41.986;21.452;2023-05-22T08:41:34;98048.84;;;29.47;44.86
10700;BME280;5401;41.986;21.452;2023-05-22T08:44:01;98053.75;;;29.42;44.57
10700;BME280;5401;41.986;21.452;2023-05-22T08:46:29;98042.00;;;29.33;44.52
10700;BME280;5401;41.986;21.452;2023-05-22T08:48:57;98043.84;;;29.29;44.33
10700;BME280;5401;41.986;21.452;2023-05-22T08:51:27;98055.06;;;29.24;44.10
10700;BME280;5401;41.986;21.452;2023-05-22T08:53:57;98047.16;;;29.23;44.28
10700;BME280;5401;41.986;21.452;2023-05-22T08:56:26;98046.22;;;29.19;44.01
10700;BME280;5401;41.986;21.452;2023-05-22T08:58:55;98048.50;;;29.17;43.93
10700;BME280;5401;41.986;21.452;2023-05-22T09:01:24;98046.91;;;29.08;44.02
10700;BME280;5401;41.986;21.452;2023-05-22T09:03:52;98048.66;;;28.92;44.15
10700;BME280;5401;41.986;21.452;2023-05-22T09:06:20;98047.66;;;28.96;43.60
10700;BME280;5401;41.986;21.452;2023-05-22T09:08:48;98041.94;;;29.01;43.91
10700;BME280;5401;41.986;21.452;2023-05-22T09:11:18;98036.44;;;29.01;43.57
10700;BME280;5401;41.986;21.452;2023-05-22T09:13:47;98037.38;;;29.05;43.39
10700;BME280;5401;41.986;21.452;2023-05-22T09:16:17;98043.69;;;29.06;43.26
10700;BME280;5401;41.986;21.452;2023-05-22T09:18:44;98040.59;;;29.07;43.27
10700;BME280;5401;41.986;21.452;2023-05-22T09:21:12;98040.25;;;29.29;43.14
10700;BME280;5401;41.986;21.452;2023-05-22T09:23:40;98038.81;;;29.43;42.87
10700;BME280;5401;41.986;21.452;2023-05-22T09:26:08;98035.75;;;29.56;42.73
10700;BME280;5401;41.986;21.452;2023-05-22T09:28:37;98037.00;;;29.59;42.67
10700;BME280;5401;41.986;21.452;2023-05-22T09:31:04;98027.78;;;29.55;42.33
10700;BME280;5401;41.986;21.452;2023-05-22T09:33:32;98032.38;;;29.51;42.12
10700;BME280;5401;41.986;21.452;2023-05-22T09:36:03;98037.16;;;29.10;42.23
10700;BME280;5401;41.986;21.452;2023-05-22T09:38:31;98035.97;;;28.79;42.24
10700;BME280;5401;41.986;21.452;2023-05-22T09:40:59;98030.31;;;28.27;42.57
10700;BME280;5401;41.986;21.452;2023-05-22T09:43:26;98024.19;;;28.21;43.08
10700;BME280;5401;41.986;21.452;2023-05-22T09:46:00;98023.88;;;28.43;42.61
10700;BME280;5401;41.986;21.452;2023-05-22T09:48:32;98016.09;;;28.45;42.72
10700;BME280;5401;41.986;21.452;2023-05-22T09:51:01;98014.47;;;28.73;42.31
10700;BME280;5401;41.986;21.452;2023-05-22T09:53:32;98016.34;;;29.01;42.13
10700;BME280;5401;41.986;21.452;2023-05-22T09:56:01;98009.00;;;29.37;41.58
10700;BME280;5401;41.986;21.452;2023-05-22T09:58:32;98011.31;;;29.79;41.30
10700;BME280;5401;41.986;21.452;2023-05-22T10:01:03;98013.53;;;30.09;41.10
10700;BME280;5401;41.986;21.452;2023-05-22T10:03:33;98009.28;;;30.35;40.61
10700;BME280;5401;41.986;21.452;2023-05-22T10:06:01;98008.69;;;30.41;40.30
10700;BME280;5401;41.986;21.452;2023-05-22T10:08:37;98006.97;;;30.49;40.24
10700;BME280;5401;41.986;21.452;2023-05-22T10:11:08;98009.38;;;30.50;39.31
10700;BME280;5401;41.986;21.452;2023-05-22T10:13:37;98006.69;;;30.65;39.37
10700;BME280;5401;41.986;21.452;2023-05-22T10:16:08;98000.97;;;30.58;39.83
10700;BME280;5401;41.986;21.452;2023-05-22T10:18:37;98004.56;;;30.23;39.21
10700;BME280;5401;41.986;21.452;2023-05-22T10:21:05;97997.53;;;30.02;39.72
10700;BME280;5401;41.986;21.452;2023-05-22T10:23:33;97984.78;;;29.98;39.68
10700;BME280;5401;41.986;21.452;2023-05-22T10:26:01;97997.88;;;30.01;39.19
10700;BME280;5401;41.986;21.452;2023-05-22T10:28:34;97984.84;;;29.89;38.85
10700;BME280;5401;41.986;21.452;2023-05-22T10:31:11;97998.66;;;29.89;38.54
10700;BME280;5401;41.986;21.452;2023-05-22T10:33:43;97990.13;;;29.71;38.75
10700;BME280;5401;41.986;21.452;2023-05-22T10:36:22;97985.28;;;29.68;38.49
10700;BME280;5401;41.986;21.452;2023-05-22T10:39:05;97985.47;;;29.39;38.76
10700;BME280;5401;41.986;21.452;2023-05-22T10:41:37;97963.03;;;29.08;39.20
10700;BME280;5401;41.986;21.452;2023-05-22T10:44:05;97970.47;;;28.96;39.09
10700;BME280;5401;41.986;21.452;2023-05-22T10:46:35;97967.66;;;28.84;39.13
10700;BME280;5401;41.986;21.452;2023-05-22T10:49:02;97965.09;;;28.79;39.30
10700;BME280;5401;41.986;21.452;2023-05-22T10:51:31;97962.44;;;28.71;39.18
10700;BME280;5401;41.986;21.452;2023-05-22T10:54:00;97952.41;;;28.46;39.44
10700;BME280;5401;41.986;21.452;2023-05-22T10:56:32;97946.50;;;28.36;39.60
10700;BME280;5401;41.986;21.452;2023-05-22T10:59:01;97954.88;;;28.19;39.69
10700;BME280;5401;41.986;21.452;2023-05-22T11:01:30;97950.63;;;27.93;40.04
10700;BME280;5401;41.986;21.452;2023-05-22T11:04:09;97953.38;;;27.64;40.09
10700;BME280;5401;41.986;21.452;2023-05-22T11:06:38;97948.28;;;27.75;40.09
10700;BME280;5401;41.986;21.452;2023-05-22T11:09:25;97944.16;;;27.98;39.94
10700;BME280;5401;41.986;21.452;2023-05-22T11:12:18;97946.03;;;28.34;39.92
10700;BME280;5401;41.986;21.452;2023-05-22T11:14:50;97961.78;;;28.45;39.49
10700;BME280;5401;41.986;21.452;2023-05-22T11:17:20;97958.97;;;28.34;39.61
10700;BME280;5401;41.986;21.452;2023-05-22T11:20:00;97963.13;;;28.19;39.41
10700;BME280;5401;41.986;21.452;2023-05-22T11:22:34;97959.78;;;27.77;39.88
10700;BME280;5401;41.986;21.452;2023-05-22T11:25:07;97951.94;;;27.59;39.98
10700;BME280;5401;41.986;21.452;2023-05-22T11:27:36;97942.00;;;27.29;39.95
10700;BME280;5401;41.986;21.452;2023-05-22T11:30:05;97949.34;;;27.00;40.55
10700;BME280;5401;41.986;21.452;2023-05-22T11:32:34;97956.34;;;26.89;40.47
10700;BME280;5401;41.986;21.452;2023-05-22T11:35:04;97949.56;;;26.87;40.76
10700;BME280;5401;41.986;21.452;2023-05-22T11:37:37;97960.19;;;26.71;40.53
10700;BME280;5401;41.986;21.452;2023-05-22T11:40:06;97957.44;;;26.38;40.84
10700;BME280;5401;41.986;21.452;2023-05-22T11:42:34;97982.75;;;26.18;40.97
10700;BME280;5401;41.986;21.452;2023-05-22T11:45:02;97980.44;;;25.95;41.70
10700;BME280;5401;41.986;21.452;2023-05-22T11:47:30;97990.09;;;25.54;41.83
10700;BME280;5401;41.986;21.452;2023-05-22T11:50:00;98008.31;;;25.20;42.33
10700;BME280;5401;41.986;21.452;2023-05-22T11:52:31;98001.38;;;24.57;43.43
10700;BME280;5401;41.986;21.452;2023-05-22T11:54:59;97994.91;;;23.92;44.77
10700;BME280;5401;41.986;21.452;2023-05-22T11:57:27;98021.69;;;23.36;46.10
10700;BME280;5401;41.986;21.452;2023-05-22T11:59:56;98016.06;;;22.83;47.08
10700;BME280;5401;41.986;21.452;2023-05-22T12:02:24;98013.28;;;22.52;47.97
10700;BME280;5401;41.986;21.452;2023-05-22T12:04:55;98012.19;;;22.16;49.21
10700;BME280;5401;41.986;21.452;2023-05-22T12:07:24;98009.03;;;22.04;49.30
10700;BME280;5401;41.986;21.452;2023-05-22T12:09:55;98016.69;;;22.02;49.75
10700;BME280;5401;41.986;21.452;2023-05-22T12:12:23;98006.56;;;22.08;49.41
10700;BME280;5401;41.986;21.452;2023-05-22T12:14:52;98019.25;;;22.17;49.57
10700;BME280;5401;41.986;21.452;2023-05-22T12:17:19;98003.88;;;22.03;49.63
10700;BME280;5401;41.986;21.452;2023-05-22T12:19:47;98016.53;;;22.17;49.04
10700;BME280;5401;41.986;21.452;2023-05-22T12:22:15;98002.22;;;22.25;49.28
10700;BME280;5401;41.986;21.452;2023-05-22T12:24:44;98019.63;;;22.47;49.20
10700;BME280;5401;41.986;21.452;2023-05-22T12:27:13;98016.38;;;22.63;49.45
10700;BME280;5401;41.986;21.452;2023-05-22T12:29:41;98026.53;;;22.76;49.43
10700;BME280;5401;41.986;21.452;2023-05-22T12:32:10;98036.44;;;22.91;49.57
10700;BME280;5401;41.986;21.452;2023-05-22T12:34:42;98031.56;;;22.69;49.36
10700;BME280;5401;41.986;21.452;2023-05-22T12:37:20;98040.09;;;22.81;50.12
10700;BME280;5401;41.986;21.452;2023-05-22T12:39:54;98004.69;;;22.76;49.84
10700;BME280;5401;41.986;21.452;2023-05-22T12:42:24;98024.00;;;22.98;50.43
10700;BME280;5401;41.986;21.452;2023-05-22T12:44:53;98014.72;;;22.99;50.35
10700;BME280;5401;41.986;21.452;2023-05-22T12:47:22;98013.44;;;23.10;50.61
10700;BME280;5401;41.986;21.452;2023-05-22T12:49:50;98017.59;;;23.21;50.73
10700;BME280;5401;41.986;21.452;2023-05-22T12:52:17;98018.31;;;23.26;51.06
10700;BME280;5401;41.986;21.452;2023-05-22T12:54:45;98001.84;;;23.31;50.96
10700;BME280;5401;41.986;21.452;2023-05-22T12:57:12;98007.22;;;23.36;50.87
10700;BME280;5401;41.986;21.452;2023-05-22T12:59:43;97963.09;;;23.29;51.10
10700;BME280;5401;41.986;21.452;2023-05-22T13:02:10;97995.22;;;23.77;50.54
10700;BME280;5401;41.986;21.452;2023-05-22T13:04:38;97985.50;;;23.98;50.50
10700;BME280;5401;41.986;21.452;2023-05-22T13:07:05;97993.25;;;24.31;50.06
10700;BME280;5401;41.986;21.452;2023-05-22T13:09:33;97994.91;;;24.53;49.83